Time;durP1;ratioP1;P1;durP2;ratioP2;P2;SDS_P1;SDS_P2;PMS_P1;PMS_P2;Temp;Humidity;BMP_temperature;BMP_pressure;BME280_temperature;BME280_humidity;BME280_pressure;Samples;Min_cycle;Max_cycle;Signal;HPM_P1;HPM_P2
2024/05/05 00:01:56;;;;;;;5.03;2.95;;;;;;;13.84;64.33;97697.47;5427140;26;20067;-62
2024/05/05 00:04:43;;;;;;;4.05;2.92;;;;;;;14.02;63.83;97710.47;5426900;26;20399;-63
2024/05/05 00:07:30;;;;;;;4.38;2.90;;;;;;;13.56;65.23;97700.97;5402178;26;20072;-65
2024/05/05 00:10:18;;;;;;;3.80;2.90;;;;;;;13.63;65.21;97698.78;5451905;26;20010;-64
2024/05/05 00:13:05;;;;;;;4.20;2.80;;;;;;;13.76;64.68;97689.16;5427683;26;20073;-66
2024/05/05 00:15:51;;;;;;;6.40;3.20;;;;;;;13.67;65.13;97690.56;5452875;26;20359;-65
2024/05/05 00:18:38;;;;;;;4.13;2.67;;;;;;;13.70;65.26;97695.69;5452063;26;20075;-64
2024/05/05 00:21:24;;;;;;;3.72;2.85;;;;;;;13.87;64.27;97688.50;5401938;26;20010;-65
2024/05/05 00:24:11;;;;;;;4.65;2.92;;;;;;;13.91;63.78;97676.81;5451731;26;20010;-66
2024/05/05 00:26:57;;;;;;;4.10;3.00;;;;;;;13.79;64.01;97652.03;5426700;26;20068;-63
2024/05/05 00:29:43;;;;;;;3.78;2.78;;;;;;;14.06;63.60;97677.63;5426597;26;20010;-63
2024/05/05 00:32:31;;;;;;;6.15;3.10;;;;;;;14.01;63.74;97671.78;5451776;26;20690;-62
2024/05/05 00:35:18;;;;;;;4.57;3.00;;;;;;;13.84;64.65;97675.47;5451568;26;20067;-63
2024/05/05 00:38:04;;;;;;;4.28;2.97;;;;;;;13.88;64.41;97675.19;5451271;26;20005;-65
2024/05/05 00:40:50;;;;;;;4.65;2.90;;;;;;;13.97;63.64;97668.50;5451320;26;20013;-65
2024/05/05 00:43:36;;;;;;;4.03;2.90;;;;;;;13.83;64.46;97665.88;5452842;26;20472;-62
2024/05/05 00:46:30;;;;;;;5.75;2.97;;;;;;;13.95;64.45;97670.38;5451079;26;20017;-61
2024/05/05 00:49:18;;;;;;;4.38;2.88;;;;;;;13.91;65.04;97674.19;5451230;26;20013;-64
2024/05/05 00:52:04;;;;;;;5.57;3.00;;;;;;;13.83;64.82;97665.88;5451095;26;20064;-60
2024/05/05 00:54:50;;;;;;;4.43;2.97;;;;;;;13.62;65.44;97666.25;5426097;26;20164;-64
2024/05/05 00:57:39;;;;;;;4.78;3.00;;;;;;;13.36;66.57;97666.06;5450999;26;20346;-64
2024/05/05 01:00:26;;;;;;;4.38;2.60;;;;;;;13.62;65.95;97668.06;5450976;26;20006;-63
2024/05/05 01:03:12;;;;;;;4.18;2.92;;;;;;;13.46;66.68;97676.91;5425982;26;20071;-61
2024/05/05 01:05:59;;;;;;;3.88;3.15;;;;;;;13.71;66.01;97670.97;5450553;26;20071;-62
2024/05/05 01:08:45;;;;;;;3.72;2.92;;;;;;;13.76;65.29;97650.41;5425607;26;20306;-64
2024/05/05 01:11:31;;;;;;;6.55;3.20;;;;;;;13.53;66.58;97677.38;5450775;26;20073;-63
2024/05/05 01:14:16;;;;;;;3.90;2.83;;;;;;;13.93;65.35;97681.03;5450731;26;20045;-65
2024/05/05 01:17:03;;;;;;;3.80;2.72;;;;;;;13.13;67.85;97682.41;5425862;26;20071;-61
2024/05/05 01:19:48;;;;;;;4.72;3.13;;;;;;;13.35;67.18;97681.97;5425977;26;20075;-64
2024/05/05 01:22:35;;;;;;;4.68;2.70;;;;;;;13.58;66.17;97673.53;5425873;26;20006;-64
2024/05/05 01:25:20;;;;;;;4.65;3.13;;;;;;;13.63;66.07;97675.88;5452118;26;20067;-64
2024/05/05 01:28:06;;;;;;;4.40;3.22;;;;;;;13.47;66.25;97673.34;5427478;26;20006;-63
2024/05/05 01:30:52;;;;;;;3.42;2.67;;;;;;;13.33;67.31;97671.53;5428700;26;20005;-66
2024/05/05 01:33:38;;;;;;;9.15;3.10;;;;;;;13.28;67.20;97657.75;5455644;26;20045;-67
2024/05/05 01:36:24;;;;;;;4.93;2.75;;;;;;;13.44;66.81;97664.72;5454036;26;20043;-67
2024/05/05 01:39:10;;;;;;;4.32;3.10;;;;;;;13.26;66.91;97633.22;5453959;26;20443;-65
2024/05/05 01:41:56;;;;;;;4.72;3.28;;;;;;;13.35;67.21;97667.00;5454061;26;20010;-65
2024/05/05 01:44:42;;;;;;;4.57;2.72;;;;;;;13.30;67.38;97660.28;5429068;26;20067;-63
2024/05/05 01:47:29;;;;;;;3.70;2.75;;;;;;;13.45;67.42;97669.91;5428770;26;20005;-66
2024/05/05 01:50:15;;;;;;;6.28;2.92;;;;;;;13.28;68.03;97665.66;5453778;26;20076;-60
2024/05/05 01:53:00;;;;;;;5.30;2.92;;;;;;;13.35;67.88;97669.66;5428482;26;20005;-64
2024/05/05 01:55:46;;;;;;;3.58;2.65;;;;;;;13.71;67.09;97681.53;5453645;26;20006;-64
2024/05/05 01:58:33;;;;;;;3.88;2.92;;;;;;;13.78;66.49;97674.06;5455055;26;20354;-62
2024/05/05 02:01:19;;;;;;;3.92;2.97;;;;;;;13.66;66.21;97664.28;5453532;26;20002;-61
2024/05/05 02:04:06;;;;;;;3.83;3.00;;;;;;;13.51;66.89;97666.09;5458009;26;20499;-64
2024/05/05 02:06:51;;;;;;;4.50;3.10;;;;;;;13.35;68.24;97661.75;5463855;26;20067;-61
2024/05/05 02:09:38;;;;;;;4.18;3.00;;;;;;;13.21;68.33;97661.69;5464572;26;20333;-61
2024/05/05 02:12:24;;;;;;;4.32;3.13;;;;;;;12.90;69.62;97662.66;5439235;26;20410;-61
2024/05/05 02:15:10;;;;;;;4.50;3.35;;;;;;;13.26;68.44;97661.41;5438863;26;20057;-63
2024/05/05 02:17:58;;;;;;;4.22;2.90;;;;;;;13.33;68.01;97668.91;5464014;26;20009;-61
2024/05/05 02:20:45;;;;;;;7.53;3.35;;;;;;;13.20;68.34;97639.72;5438812;26;20013;-65
2024/05/05 02:23:31;;;;;;;4.53;3.35;;;;;;;13.48;67.90;97671.53;5438392;26;20099;-63
2024/05/05 02:26:17;;;;;;;4.15;3.03;;;;;;;13.45;68.41;97674.34;5438667;26;20457;-61
2024/05/05 02:29:02;;;;;;;4.25;3.15;;;;;;;13.66;68.05;97673.03;5463835;26;20072;-64
2024/05/05 02:31:48;;;;;;;4.50;2.72;;;;;;;13.83;67.27;97682.56;5439022;26;20005;-63
2024/05/05 02:34:34;;;;;;;4.65;3.38;;;;;;;13.82;66.88;97683.53;5439146;26;20333;-61
2024/05/05 02:37:19;;;;;;;5.57;3.50;;;;;;;13.45;67.86;97683.13;5463987;26;20034;-62
2024/05/05 02:40:07;;;;;;;4.10;2.95;;;;;;;13.59;67.62;97693.69;5463675;26;20005;-61
2024/05/05 02:42:53;;;;;;;4.15;3.10;;;;;;;13.39;68.83;97696.69;5463591;26;20010;-62
2024/05/05 02:45:39;;;;;;;4.93;3.22;;;;;;;13.52;68.10;97694.16;5438420;26;20066;-61
2024/05/05 02:48:25;;;;;;;4.47;3.10;;;;;;;13.73;67.24;97697.25;5463609;26;20009;-61
2024/05/05 02:51:11;;;;;;;4.45;3.30;;;;;;;13.57;68.25;97698.19;5490942;26;20070;-61
2024/05/05 02:53:56;;;;;;;4.18;3.08;;;;;;;13.73;67.54;97697.25;5438152;26;20009;-60
2024/05/05 02:56:42;;;;;;;3.58;2.97;;;;;;;13.88;66.27;97679.63;5438125;26;20409;-60
2024/05/05 02:59:30;;;;;;;4.72;3.15;;;;;;;13.95;66.03;97681.78;5463301;26;20067;-61
2024/05/05 03:02:16;;;;;;;4.47;3.10;;;;;;;13.82;66.13;97657.13;5438161;26;20006;-62
2024/05/05 03:05:02;;;;;;;4.15;2.88;;;;;;;14.12;66.22;97696.59;5490332;26;20031;-61
2024/05/05 03:07:48;;;;;;;4.20;3.30;;;;;;;13.91;66.80;97666.25;5438135;26;20009;-60
2024/05/05 03:10:34;;;;;;;4.15;2.92;;;;;;;13.93;68.31;97696.03;5463027;26;20008;-60
2024/05/05 03:13:20;;;;;;;3.45;2.50;;;;;;;13.82;68.76;97658.88;5438341;26;20066;-61
2024/05/05 03:16:09;;;;;;;4.70;2.92;;;;;;;13.81;68.87;97662.50;5463407;26;20030;-62
2024/05/05 03:18:56;;;;;;;3.70;2.70;;;;;;;13.95;68.64;97691.50;5438009;26;20013;-62
2024/05/05 03:21:43;;;;;;;4.03;3.10;;;;;;;14.01;68.79;97693.75;5437723;26;20031;-64
2024/05/05 03:24:29;;;;;;;4.43;3.13;;;;;;;14.05;68.52;97697.91;5462801;26;20009;-65
2024/05/05 03:27:15;;;;;;;3.65;2.85;;;;;;;14.04;68.15;97690.09;5462867;26;20421;-61
2024/05/05 03:30:02;;;;;;;4.50;3.20;;;;;;;13.87;67.92;97697.25;5437748;26;20006;-61
2024/05/05 03:32:48;;;;;;;5.70;3.83;;;;;;;13.62;68.66;97703.22;5438102;26;20431;-61
2024/05/05 03:35:34;;;;;;;7.90;3.95;;;;;;;13.68;68.34;97702.84;5462719;26;20032;-65
2024/05/05 03:38:21;;;;;;;4.60;3.25;;;;;;;13.67;68.32;97709.06;5462983;26;20413;-65
2024/05/05 03:41:06;;;;;;;4.40;3.25;;;;;;;13.81;67.96;97713.50;5437587;26;20032;-64
2024/05/05 03:43:52;;;;;;;5.22;3.20;;;;;;;13.78;68.24;97717.16;5462608;26;20391;-64
2024/05/05 03:46:38;;;;;;;6.72;3.40;;;;;;;13.32;67.79;97624.97;5462432;26;20346;-64
2024/05/05 03:49:24;;;;;;;4.95;3.70;;;;;;;13.72;68.39;97717.53;5436764;26;20354;-66
2024/05/05 03:52:10;;;;;;;6.13;3.90;;;;;;;13.70;69.06;97716.78;5462921;26;20009;-66
2024/05/05 03:54:57;;;;;;;5.55;3.50;;;;;;;13.87;68.45;97712.25;5438145;26;20070;-65
2024/05/05 03:57:44;;;;;;;5.55;3.80;;;;;;;13.98;67.76;97715.94;5489963;26;20009;-63
2024/05/05 04:00:30;;;;;;;5.03;3.42;;;;;;;14.03;67.86;97723.59;5462882;26;20009;-63
2024/05/05 04:03:16;;;;;;;5.10;3.65;;;;;;;13.83;67.93;97682.56;5462711;26;20005;-65
2024/05/05 04:06:02;;;;;;;5.85;3.20;;;;;;;14.08;68.15;97720.63;5426519;26;20010;-64
2024/05/05 04:08:48;;;;;;;5.00;3.13;;;;;;;14.03;67.94;97718.31;5426655;26;20403;-63
2024/05/05 04:11:34;;;;;;;5.72;3.58;;;;;;;14.03;68.09;97731.50;5426543;26;20067;-61
2024/05/05 04:14:20;;;;;;;4.22;2.70;;;;;;;14.01;66.11;97683.19;5426723;26;20465;-62
2024/05/05 04:17:06;;;;;;;4.28;2.65;;;;;;;14.06;66.44;97719.88;5453122;26;20049;-65
2024/05/05 04:19:52;;;;;;;2.95;1.98;;;;;;;13.72;66.65;97716.69;5401806;26;20009;-60
2024/05/05 04:22:38;;;;;;;2.83;1.95;;;;;;;14.04;65.90;97748.19;5451606;26;20067;-64
2024/05/05 04:25:24;;;;;;;1.88;1.60;;;;;;;14.18;65.87;97748.16;5426526;26;20042;-61
2024/05/05 04:28:10;;;;;;;2.25;1.60;;;;;;;14.05;66.12;97750.75;5451510;26;20064;-61
2024/05/05 04:30:56;;;;;;;1.75;1.40;;;;;;;14.12;65.96;97744.13;5451678;26;20369;-62
2024/05/05 04:33:42;;;;;;;1.30;1.20;;;;;;;14.24;65.71;97742.50;5426574;26;20032;-66
2024/05/05 04:36:28;;;;;;;1.42;1.30;;;;;;;14.32;65.67;97742.84;5453102;26;20009;-65
2024/05/05 04:39:14;;;;;;;3.03;1.20;;;;;;;14.25;66.41;97738.06;5452006;26;20064;-64
2024/05/05 04:42:00;;;;;;;2.80;1.30;;;;;;;14.32;66.29;97749.94;5451839;26;20559;-64
2024/05/05 04:44:46;;;;;;;1.30;1.20;;;;;;;14.24;66.79;97742.50;5451411;26;20453;-62
2024/05/05 04:47:32;;;;;;;2.05;1.15;;;;;;;14.18;67.34;97752.63;5451230;26;20068;-60
2024/05/05 04:50:17;;;;;;;1.65;1.20;;;;;;;14.11;68.56;97725.72;5426354;26;20002;-61
2024/05/05 04:53:04;;;;;;;1.30;1.15;;;;;;;14.00;68.66;97755.47;5451404;26;20002;-60
2024/05/05 04:55:49;;;;;;;1.38;1.20;;;;;;;13.89;70.04;97753.47;5451435;26;20120;-65
2024/05/05 04:58:35;;;;;;;1.55;1.23;;;;;;;13.89;70.64;97756.13;5451364;26;20005;-60
2024/05/05 05:01:21;;;;;;;1.85;1.27;;;;;;;13.69;71.23;97753.84;5451178;26;20076;-62
2024/05/05 05:04:07;;;;;;;3.22;1.50;;;;;;;13.69;71.33;97752.03;5455928;26;20006;-64
2024/05/05 05:06:59;;;;;;;1.38;1.23;;;;;;;13.65;71.46;97753.19;5461876;26;20414;-63
2024/05/05 05:09:45;;;;;;;1.38;1.20;;;;;;;13.82;70.61;97754.81;5438149;26;20539;-61
2024/05/05 05:12:31;;;;;;;1.50;1.30;;;;;;;13.77;71.19;97752.44;5455573;26;20021;-60
2024/05/05 05:15:17;;;;;;;1.20;1.10;;;;;;;13.53;71.67;97748.63;5460293;26;20423;-60
2024/05/05 05:18:03;;;;;;;2.08;1.30;;;;;;;13.26;72.16;97725.53;5460406;26;20017;-62
2024/05/05 05:20:49;;;;;;;1.83;1.40;;;;;;;13.41;72.80;97756.31;5460531;26;20009;-61
2024/05/05 05:23:34;;;;;;;1.23;1.13;;;;;;;13.32;72.99;97748.97;5486076;26;20017;-58
2024/05/05 05:26:20;;;;;;;2.80;1.77;;;;;;;13.29;73.29;97724.53;5482456;26;20052;-58
2024/05/05 05:29:06;;;;;;;1.27;1.17;;;;;;;13.62;72.30;97744.59;5484433;26;20341;-60
2024/05/05 05:31:56;;;;;;;1.48;1.20;;;;;;;13.67;72.58;97747.81;5435683;26;20406;-60
2024/05/05 05:34:42;;;;;;;1.95;1.20;;;;;;;13.75;72.93;97746.41;5460348;26;20009;-60
2024/05/05 05:37:32;;;;;;;1.83;1.20;;;;;;;13.73;73.08;97742.13;5460758;26;20068;-60
2024/05/05 05:40:17;;;;;;;3.35;1.27;;;;;;;13.75;72.81;97749.03;5461104;26;20005;-66
2024/05/05 05:43:05;;;;;;;1.50;1.30;;;;;;;13.37;74.09;97756.63;5461038;26;20004;-62
2024/05/05 05:45:51;;;;;;;3.35;1.48;;;;;;;13.79;73.87;97755.81;5461371;26;20074;-62
2024/05/05 05:48:37;;;;;;;1.75;1.10;;;;;;;13.88;72.79;97750.94;5461327;26;20067;-60
2024/05/05 05:51:24;;;;;;;1.60;1.20;;;;;;;13.79;73.11;97732.06;5435893;26;20078;-61
2024/05/05 05:54:09;;;;;;;1.33;1.20;;;;;;;13.86;72.76;97760.75;5435482;26;20016;-64
2024/05/05 05:56:56;;;;;;;1.45;1.15;;;;;;;13.56;73.40;97735.25;5460832;26;20039;-60
2024/05/05 05:59:42;;;;;;;1.83;1.40;;;;;;;13.74;72.99;97726.22;5435469;26;20069;-65
2024/05/05 06:02:28;;;;;;;1.98;1.30;;;;;;;13.85;72.17;97751.94;5488108;26;20073;-61
2024/05/05 06:05:14;;;;;;;1.27;1.13;;;;;;;13.69;73.27;97741.47;5460792;26;20005;-65
2024/05/05 06:07:59;;;;;;;2.65;1.30;;;;;;;13.85;73.08;97740.56;5435796;26;20009;-62
2024/05/05 06:10:45;;;;;;;1.10;1.00;;;;;;;13.74;72.43;97747.34;5435484;26;20006;-60
2024/05/05 06:13:31;;;;;;;0.90;0.90;;;;;;;13.83;72.69;97734.53;5462212;26;20005;-64
2024/05/05 06:16:22;;;;;;;1.48;0.90;;;;;;;13.85;72.46;97732.63;5492232;26;20027;-62
2024/05/05 06:19:08;;;;;;;1.10;1.00;;;;;;;13.42;73.14;97683.31;5438925;26;20038;-60
2024/05/05 06:21:53;;;;;;;1.17;1.08;;;;;;;14.01;72.31;97728.09;5491274;26;20005;-63
2024/05/05 06:24:41;;;;;;;3.08;1.05;;;;;;;13.52;72.99;97694.16;5464284;26;20005;-63
2024/05/05 06:27:27;;;;;;;0.95;0.95;;;;;;;13.69;73.44;97728.28;5491522;26;20031;-61
2024/05/05 06:30:13;;;;;;;1.05;1.02;;;;;;;13.88;72.39;97724.53;5440392;26;20005;-63
2024/05/05 06:32:59;;;;;;;1.08;0.98;;;;;;;14.25;71.25;97717.78;5439989;26;20058;-62
2024/05/05 06:35:45;;;;;;;2.90;1.10;;;;;;;14.15;71.62;97720.16;5438555;26;20066;-63
2024/05/05 06:38:31;;;;;;;1.10;1.00;;;;;;;14.06;71.41;97704.88;5463810;26;20020;-62
2024/05/05 06:41:17;;;;;;;1.50;0.90;;;;;;;13.86;71.83;97679.72;5463800;26;20351;-60
2024/05/05 06:44:03;;;;;;;1.20;1.08;;;;;;;14.45;70.50;97719.16;5490751;26;20005;-62
2024/05/05 06:46:49;;;;;;;0.88;0.80;;;;;;;14.40;70.46;97721.25;5463811;26;20502;-61
2024/05/05 06:49:34;;;;;;;0.98;0.95;;;;;;;14.11;71.94;97694.03;5438098;26;20005;-61
2024/05/05 06:52:20;;;;;;;1.20;0.80;;;;;;;14.00;72.33;97725.56;5463682;26;20008;-63
2024/05/05 06:55:06;;;;;;;0.90;0.80;;;;;;;14.30;71.40;97717.50;5463386;26;20005;-60
2024/05/05 06:57:52;;;;;;;1.90;0.85;;;;;;;14.23;71.48;97716.19;5438286;26;20005;-61
2024/05/05 07:00:39;;;;;;;0.85;0.85;;;;;;;14.54;70.86;97728.28;5463380;26;20005;-60
2024/05/05 07:03:25;;;;;;;0.82;0.80;;;;;;;14.44;72.04;97732.47;5463208;26;20030;-60
2024/05/05 07:06:11;;;;;;;1.00;1.00;;;;;;;14.32;72.36;97727.00;5490302;26;20008;-61
2024/05/05 07:08:58;;;;;;;0.85;0.85;;;;;;;14.29;72.06;97718.44;5438897;26;20449;-60
2024/05/05 07:11:44;;;;;;;0.70;0.70;;;;;;;14.23;71.62;97692.41;5438210;26;20005;-61
2024/05/05 07:14:31;;;;;;;0.90;0.80;;;;;;;14.35;72.09;97720.69;5463420;26;20309;-60
2024/05/05 07:17:17;;;;;;;1.00;0.90;;;;;;;14.43;71.75;97691.13;5438138;26;20005;-60
2024/05/05 07:20:04;;;;;;;1.33;0.90;;;;;;;14.49;71.34;97728.56;5438068;26;20031;-60
2024/05/05 07:22:50;;;;;;;1.52;1.05;;;;;;;14.69;71.06;97732.59;5490107;26;20008;-60
2024/05/05 07:25:36;;;;;;;0.90;0.90;;;;;;;14.74;71.41;97737.59;5490048;26;20010;-62
2024/05/05 07:28:21;;;;;;;60.92;29.75;;;;;;;14.61;71.08;97729.63;5462819;26;20506;-60
2024/05/05 07:31:08;;;;;;;3.40;1.70;;;;;;;14.63;71.56;97743.59;5462798;26;20070;-66
2024/05/05 07:33:54;;;;;;;1.58;0.90;;;;;;;14.15;72.17;97725.44;5463098;26;20005;-61
2024/05/05 07:36:40;;;;;;;0.70;0.70;;;;;;;14.49;71.89;97735.66;5437703;26;20034;-59
2024/05/05 07:39:26;;;;;;;1.23;1.10;;;;;;;14.31;72.31;97717.41;5437912;26;20063;-60
2024/05/05 07:42:12;;;;;;;1.27;1.10;;;;;;;14.43;71.63;97691.97;5462782;26;20066;-62
2024/05/05 07:44:58;;;;;;;1.95;0.90;;;;;;;14.43;71.66;97718.38;5463235;26;20005;-60
2024/05/05 07:47:44;;;;;;;1.40;0.90;;;;;;;14.76;70.96;97732.22;5437895;26;20138;-62
2024/05/05 07:50:31;;;;;;;1.45;1.20;;;;;;;14.64;71.62;97718.84;5463323;26;20033;-63
2024/05/05 07:53:17;;;;;;;1.38;1.15;;;;;;;14.87;71.03;97732.34;5462915;26;20005;-62
2024/05/05 07:56:03;;;;;;;1.67;1.30;;;;;;;14.68;70.97;97703.63;5437292;26;20066;-60
2024/05/05 07:58:49;;;;;;;5.47;2.60;;;;;;;15.03;70.18;97730.41;5462784;26;20021;-61
2024/05/05 08:01:35;;;;;;;2.10;1.40;;;;;;;15.02;69.92;97731.34;5462564;26;20030;-62
2024/05/05 08:04:21;;;;;;;2.13;1.10;;;;;;;15.05;69.86;97728.50;5462333;26;20030;-64
2024/05/05 08:07:07;;;;;;;1.98;0.90;;;;;;;15.04;70.19;97731.25;5462321;26;20445;-61
2024/05/05 08:09:53;;;;;;;1.92;0.98;;;;;;;15.19;69.15;97732.03;5463093;26;20030;-61
2024/05/05 08:12:39;;;;;;;1.13;0.88;;;;;;;15.34;68.73;97728.34;5463072;26;20006;-64
2024/05/05 08:15:25;;;;;;;1.33;1.00;;;;;;;15.51;68.97;97731.63;5437031;26;20009;-62
2024/05/05 08:18:11;;;;;;;0.73;0.70;;;;;;;15.52;68.08;97714.81;5462231;26;20070;-64
2024/05/05 08:20:58;;;;;;;0.70;0.70;;;;;;;15.76;68.18;97726.41;5437077;26;20518;-60
2024/05/05 08:23:44;;;;;;;2.28;0.90;;;;;;;15.64;67.20;97716.63;5436987;26;20074;-60
2024/05/05 08:26:31;;;;;;;1.45;0.93;;;;;;;15.77;67.44;97720.13;5437477;26;20062;-60
2024/05/05 08:29:17;;;;;;;1.02;0.80;;;;;;;16.29;65.95;97705.00;5436745;26;20383;-60
2024/05/05 08:32:04;;;;;;;1.85;0.90;;;;;;;16.20;65.02;97706.50;5489977;26;20399;-61
2024/05/05 08:34:50;;;;;;;0.80;0.80;;;;;;;15.80;66.13;97716.44;5462420;26;20066;-64
2024/05/05 08:37:38;;;;;;;1.90;1.05;;;;;;;15.80;66.55;97708.47;5411377;26;20329;-60
2024/05/05 08:40:24;;;;;;;0.77;0.77;;;;;;;16.20;65.81;97710.97;5462051;26;20004;-61
2024/05/05 08:43:12;;;;;;;0.70;0.70;;;;;;;16.01;65.25;97708.78;5437047;26;20044;-64
2024/05/05 08:45:58;;;;;;;0.80;0.80;;;;;;;16.26;64.82;97699.91;5461913;26;20062;-64
2024/05/05 08:48:45;;;;;;;1.92;0.80;;;;;;;16.80;63.14;97703.94;5436372;26;20030;-65
2024/05/05 08:51:31;;;;;;;0.85;0.77;;;;;;;16.96;63.38;97714.28;5488842;26;20015;-61
2024/05/05 08:54:17;;;;;;;0.98;0.77;;;;;;;17.13;63.02;97700.59;5462083;26;20008;-64
2024/05/05 08:57:07;;;;;;;1.02;0.93;;;;;;;16.97;63.12;97694.78;5436856;26;20059;-61
2024/05/05 08:59:53;;;;;;;1.02;0.90;;;;;;;17.00;63.93;97707.78;5461505;26;20008;-62
2024/05/05 09:02:41;;;;;;;1.23;0.80;;;;;;;17.07;62.00;97710.84;5462144;26;20440;-63
2024/05/05 09:05:44;;;;;;;69.93;28.30;;;;;;;16.63;63.07;97693.75;5451465;26;20009;-67
2024/05/05 09:08:30;;;;;;;4.43;2.28;;;;;;;16.74;63.12;97678.72;5451848;26;20070;-63
2024/05/05 09:11:16;;;;;;;0.77;0.77;;;;;;;16.94;62.70;97705.59;5452314;26;20071;-62
2024/05/05 09:14:14;;;;;;;1.42;0.90;;;;;;;16.97;62.52;97700.91;5450714;26;20009;-60
2024/05/05 09:17:00;;;;;;;0.90;0.80;;;;;;;16.80;63.22;97699.47;5425918;26;20006;-61
2024/05/05 09:19:47;;;;;;;0.80;0.80;;;;;;;16.98;63.53;97704.41;5425766;26;20067;-61
2024/05/05 09:22:33;;;;;;;0.65;0.65;;;;;;;16.56;62.92;97658.88;5426850;26;20321;-62
2024/05/05 09:25:20;;;;;;;0.73;0.73;;;;;;;16.74;63.61;97688.47;5451468;26;20116;-61
2024/05/05 09:28:07;;;;;;;1.52;0.90;;;;;;;17.04;62.73;97696.00;5451112;26;20395;-61
2024/05/05 09:30:53;;;;;;;0.60;0.60;;;;;;;17.18;61.43;97685.19;5452168;26;20310;-63
2024/05/05 09:33:39;;;;;;;0.60;0.60;;;;;;;17.40;60.25;97680.88;5451047;26;20072;-61
2024/05/05 09:36:27;;;;;;;0.63;0.63;;;;;;;17.31;60.53;97692.22;5450636;26;20068;-63
2024/05/05 09:39:16;;;;;;;0.55;0.55;;;;;;;17.23;62.33;97699.91;5450722;26;20049;-62
2024/05/05 09:42:02;;;;;;;0.60;0.60;;;;;;;17.18;63.00;97694.97;5425302;26;20006;-60
2024/05/05 09:44:48;;;;;;;0.70;0.70;;;;;;;16.85;62.54;97693.88;5450506;26;20102;-60
2024/05/05 09:47:41;;;;;;;0.57;0.57;;;;;;;16.73;62.67;97663.75;5451813;26;20010;-61
2024/05/05 09:50:30;;;;;;;0.60;0.60;;;;;;;17.03;61.76;97696.13;5454144;26;20064;-65
2024/05/05 09:53:46;;;;;;;0.80;0.70;;;;;;;17.45;61.48;97699.97;5455548;26;20075;-60
2024/05/05 09:56:36;;;;;;;1.40;1.30;;;;;;;17.34;59.97;97705.25;5449915;26;20010;-60
2024/05/05 09:59:37;;;;;;;0.60;0.60;;;;;;;16.93;60.81;97691.50;5454221;26;20009;-60
2024/05/05 10:02:24;;;;;;;1.30;0.80;;;;;;;16.91;61.47;97695.22;5428746;26;20009;-68
2024/05/05 10:05:14;;;;;;;0.52;0.52;;;;;;;17.33;61.44;97706.22;5404739;26;20326;-59
2024/05/05 10:08:01;;;;;;;0.50;0.50;;;;;;;17.30;61.26;97707.31;5453857;26;20010;-61
2024/05/05 10:10:46;;;;;;;0.60;0.60;;;;;;;17.37;61.01;97705.03;5455302;26;20045;-61
2024/05/05 10:13:32;;;;;;;0.85;0.70;;;;;;;16.97;60.07;97670.91;5428866;26;20002;-65
2024/05/05 10:16:19;;;;;;;0.50;0.50;;;;;;;16.96;58.86;97656.75;5455132;26;20367;-60
2024/05/05 10:19:15;;;;;;;1.10;0.80;;;;;;;16.94;59.56;97682.56;5428781;26;20002;-61
2024/05/05 10:22:05;;;;;;;0.93;0.70;;;;;;;16.58;60.76;97691.41;5455289;26;20005;-60
2024/05/05 10:24:51;;;;;;;0.65;0.65;;;;;;;15.81;61.13;97548.59;5430031;26;20075;-67
2024/05/05 10:27:38;;;;;;;0.55;0.55;;;;;;;16.29;61.35;97689.09;5456162;26;20063;-61
2024/05/05 10:30:24;;;;;;;0.70;0.70;;;;;;;16.22;61.84;97674.59;5454778;26;20446;-61
2024/05/05 10:33:10;;;;;;;1.00;0.80;;;;;;;15.80;62.39;97618.44;5453571;26;20010;-60
2024/05/05 10:35:59;;;;;;;0.60;0.60;;;;;;;16.32;62.98;97698.63;5453381;26;20454;-61
2024/05/05 10:38:45;;;;;;;0.73;0.70;;;;;;;16.51;63.03;97695.47;5453674;26;20005;-61
2024/05/05 10:41:32;;;;;;;0.70;0.70;;;;;;;16.47;62.54;97696.66;5428268;26;20005;-59
2024/05/05 10:44:19;;;;;;;0.63;0.63;;;;;;;16.61;62.13;97683.25;5428158;26;20071;-62
2024/05/05 10:47:06;;;;;;;0.63;0.63;;;;;;;16.68;61.59;97673.03;5454731;26;20341;-60
2024/05/05 10:49:54;;;;;;;0.63;0.63;;;;;;;16.73;60.88;97684.16;5453328;26;20010;-61
2024/05/05 10:52:40;;;;;;;0.60;0.60;;;;;;;16.73;61.21;97687.63;5453392;26;20009;-61
2024/05/05 10:55:26;;;;;;;0.55;0.55;;;;;;;17.20;60.38;97687.72;5428183;26;20031;-64
2024/05/05 10:58:13;;;;;;;0.52;0.50;;;;;;;17.55;58.53;97676.22;5453664;26;20005;-64
2024/05/05 11:00:59;;;;;;;0.50;0.50;;;;;;;18.06;58.28;97662.47;5428073;26;20005;-64
2024/05/05 11:03:46;;;;;;;0.90;0.75;;;;;;;18.22;57.99;97661.22;5453487;26;20009;-60
2024/05/05 11:06:34;;;;;;;0.60;0.60;;;;;;;19.16;53.23;97618.94;5417091;26;20065;-59
2024/05/05 11:09:26;;;;;;;0.82;0.63;;;;;;;19.19;54.37;97661.28;5417192;26;20072;-62
2024/05/05 11:12:12;;;;;;;0.60;0.60;;;;;;;18.54;54.79;97657.75;5417247;26;20065;-61
2024/05/05 11:14:59;;;;;;;0.85;0.70;;;;;;;19.45;53.48;97645.72;5417165;26;20018;-60
2024/05/05 11:17:45;;;;;;;0.80;0.77;;;;;;;20.37;51.74;97659.00;5418708;26;20335;-61
2024/05/05 11:20:32;;;;;;;0.60;0.60;;;;;;;21.43;48.43;97619.06;5416657;26;20459;-61
2024/05/05 11:23:19;;;;;;;0.77;0.70;;;;;;;19.04;51.67;97634.94;5442161;26;20010;-61
2024/05/05 11:26:13;;;;;;;2.08;0.52;;;;;;;18.92;53.98;97646.63;5418182;26;20010;-62
2024/05/05 11:28:59;;;;;;;0.50;0.50;;;;;;;18.87;54.00;97638.19;5416826;26;20069;-60
2024/05/05 11:31:45;;;;;;;0.50;0.50;;;;;;;17.96;55.39;97650.88;5418358;26;20080;-62
2024/05/05 11:34:31;;;;;;;0.50;0.50;;;;;;;18.24;56.43;97644.19;5441505;26;20342;-62
2024/05/05 11:37:16;;;;;;;0.70;0.70;;;;;;;18.15;55.55;97622.81;5441737;26;20349;-60
2024/05/05 11:40:03;;;;;;;1.27;0.90;;;;;;;17.88;55.60;97638.19;5416783;26;20068;-60
2024/05/05 11:42:52;;;;;;;0.70;0.70;;;;;;;17.81;56.15;97646.75;5391716;26;20348;-60
2024/05/05 11:45:39;;;;;;;0.98;0.70;;;;;;;17.36;57.59;97650.22;5416793;26;20010;-61
2024/05/05 11:49:02;;;;;;;0.52;0.52;;;;;;;17.30;59.02;97658.69;5417053;26;20006;-61
2024/05/05 11:52:38;;;;;;;0.60;0.60;;;;;;;17.04;61.60;97680.09;5437274;26;20009;-62
2024/05/05 11:55:25;;;;;;;2.83;0.85;;;;;;;16.44;71.91;97692.41;5440977;26;20015;-60
2024/05/05 11:58:10;;;;;;;4.55;1.20;;;;;;;15.96;76.62;97679.09;5441546;26;20068;-60
2024/05/05 12:00:56;;;;;;;7.00;2.95;;;;;;;15.93;78.57;97685.47;5416246;26;20002;-62
2024/05/05 12:03:42;;;;;;;1.60;1.00;;;;;;;15.97;78.93;97694.91;5416412;26;20339;-62
2024/05/05 12:06:33;;;;;;;3.30;1.10;;;;;;;15.91;77.95;97694.47;5416072;26;20007;-62
2024/05/05 12:09:19;;;;;;;1.15;1.05;;;;;;;15.84;79.17;97694.06;5441458;26;20457;-61
2024/05/05 12:12:05;;;;;;;1.55;1.15;;;;;;;15.72;81.35;97690.44;5389992;26;20006;-61
2024/05/05 12:14:51;;;;;;;1.27;0.90;;;;;;;15.74;81.00;97682.38;5416172;26;20006;-61
2024/05/05 12:17:55;;;;;;;6.70;3.20;;;;;;;15.91;81.53;97694.47;5441277;26;20006;-59
2024/05/05 12:20:44;;;;;;;2.88;1.17;;;;;;;15.79;80.70;97701.47;5415998;26;20056;-61
2024/05/05 12:23:30;;;;;;;1.27;0.98;;;;;;;15.66;81.36;97691.72;5417512;26;20032;-59
2024/05/05 12:26:39;;;;;;;1.67;1.15;;;;;;;15.63;81.82;97686.63;5415914;26;20368;-60
2024/05/05 12:29:26;;;;;;;1.65;1.02;;;;;;;15.82;82.66;97693.31;5416376;26;20009;-65
2024/05/05 12:32:12;;;;;;;2.28;1.55;;;;;;;15.90;80.73;97706.03;5441562;26;20010;-64
2024/05/05 12:34:59;;;;;;;1.60;1.15;;;;;;;15.93;81.67;97700.50;5415972;26;20007;-64
2024/05/05 12:37:44;;;;;;;1.50;1.10;;;;;;;15.74;81.36;97692.97;5391284;26;20010;-63
2024/05/05 12:40:35;;;;;;;0.95;0.93;;;;;;;15.82;81.22;97704.75;5415735;26;20006;-63
2024/05/05 12:43:24;;;;;;;1.00;0.90;;;;;;;15.76;81.66;97707.84;5416010;26;20007;-64
2024/05/05 12:46:16;;;;;;;3.20;1.17;;;;;;;15.59;82.84;97686.97;5417270;26;20457;-63
2024/05/05 12:49:09;;;;;;;1.58;0.90;;;;;;;15.74;83.42;97704.41;5415773;26;20068;-65
2024/05/05 12:51:55;;;;;;;2.40;1.33;;;;;;;15.52;84.36;97696.28;5441256;26;20045;-66
2024/05/05 12:54:42;;;;;;;3.63;1.20;;;;;;;15.25;83.53;97666.31;5417400;26;20068;-63
2024/05/05 12:57:28;;;;;;;1.00;0.85;;;;;;;15.56;84.75;97687.16;5415726;26;20010;-61
2024/05/05 13:00:14;;;;;;;1.73;1.00;;;;;;;15.30;81.08;97676.56;5415763;26;20006;-64
2024/05/05 13:03:00;;;;;;;4.80;1.17;;;;;;;15.30;83.81;97679.22;5417736;26;20073;-65
2024/05/05 13:05:47;;;;;;;1.15;0.90;;;;;;;15.66;82.49;97675.00;5444930;26;20063;-62
2024/05/05 13:08:32;;;;;;;1.75;1.00;;;;;;;15.77;83.21;97676.91;5451651;26;20431;-60